< < Back
Terminal Aerodrome Forecast


Current Version              Previous Versions:   1  2  3  4  5  6  7  8  9  

Terminal Aerodrome Forecast

016
FTUS42 KGSP 041137
TAFAND
TAF
KAND 041137Z 0412/0512 21005KT 1/2SM FG OVC002
      TEMPO 0412/0414 1/4SM FG
     FM041400 22008KT 1 1/2SM BR OVC003
     FM041600 23011KT P6SM BKN010
     FM041900 23014KT P6SM BKN045
     FM042300 23009KT P6SM SCT050
     FM050800 22008KT P6SM BKN012=

Latest METAR

386
SAUS70 KWBC 042000 RRA
MTRAND
METAR KAND 041956Z AUTO 20009KT 10SM OVC036 19/15 A2996 RMK AO2 SLP142
T01940150


USA.gov is the U.S. government's official web portal to all federal, state and local government web resources and services.